Time;durP1;ratioP1;P1;durP2;ratioP2;P2;SDS_P1;SDS_P2;PMS_P1;PMS_P2;Temp;Humidity;BMP_temperature;BMP_pressure;BME280_temperature;BME280_humidity;BME280_pressure;Samples;Min_cycle;Max_cycle;Signal;HPM_P1;HPM_P2
2022/06/14 00:01:32;;;;;;;3.40;1.50;;;12.00;99.90;;;;;;4989525;28;20298;-62
2022/06/14 00:03:59;;;;;;;5.72;1.60;;;12.00;99.90;;;;;;4961483;28;20865;-62
2022/06/14 00:06:30;;;;;;;4.10;1.70;;;12.00;99.90;;;;;;4976394;28;20725;-62
2022/06/14 00:08:58;;;;;;;6.57;1.60;;;12.00;99.90;;;;;;4992226;28;20199;-62
2022/06/14 00:11:27;;;;;;;5.80;1.60;;;11.90;99.90;;;;;;4972403;28;20210;-62
2022/06/14 00:13:56;;;;;;;3.00;1.52;;;11.90;99.90;;;;;;4975214;28;20234;-62
2022/06/14 00:16:24;;;;;;;6.38;1.90;;;11.80;99.90;;;;;;4969267;28;20206;-62
2022/06/14 00:18:51;;;;;;;6.32;1.80;;;11.80;99.90;;;;;;4976464;28;20289;-62
2022/06/14 00:21:18;;;;;;;4.57;1.90;;;11.80;99.90;;;;;;4969972;28;20217;-62
2022/06/14 00:23:46;;;;;;;2.42;1.75;;;11.80;99.90;;;;;;4970077;28;20199;-62
2022/06/14 00:26:13;;;;;;;7.30;2.80;;;11.80;99.90;;;;;;4976366;28;20215;-62
2022/06/14 00:28:43;;;;;;;4.82;1.77;;;11.80;99.90;;;;;;4965421;28;20579;-63
2022/06/14 00:31:12;;;;;;;3.65;1.80;;;11.90;99.90;;;;;;4973622;28;20824;-62
2022/06/14 00:33:39;;;;;;;7.03;2.20;;;11.80;99.90;;;;;;4974224;28;20223;-63
2022/06/14 00:36:08;;;;;;;4.90;1.50;;;11.80;99.90;;;;;;4943432;28;20599;-62
2022/06/14 00:38:37;;;;;;;7.13;1.67;;;11.80;99.90;;;;;;4990861;28;21989;-62
2022/06/14 00:41:07;;;;;;;7.25;1.98;;;11.80;99.90;;;;;;4970920;28;20873;-62
2022/06/14 00:43:34;;;;;;;8.07;1.95;;;11.90;99.90;;;;;;4968741;28;20210;-62
2022/06/14 00:46:16;;;;;;;5.90;1.92;;;11.70;99.90;;;;;;4972835;28;20202;-62
2022/06/14 00:48:48;;;;;;;8.95;2.20;;;11.80;99.90;;;;;;4969521;28;20210;-62
2022/06/14 00:51:20;;;;;;;3.88;1.65;;;11.70;99.90;;;;;;4964050;28;20206;-63
2022/06/14 00:53:54;;;;;;;5.82;1.75;;;11.70;99.90;;;;;;4988202;28;20218;-62
2022/06/14 00:56:29;;;;;;;5.72;2.50;;;11.90;99.90;;;;;;4948602;28;20239;-63
2022/06/14 00:59:02;;;;;;;8.40;1.95;;;11.60;99.90;;;;;;4967537;28;20203;-62
2022/06/14 01:01:33;;;;;;;5.05;1.98;;;11.90;99.90;;;;;;4978468;28;20984;-62
2022/06/14 01:04:06;;;;;;;6.55;1.60;;;11.80;99.90;;;;;;4965915;28;20209;-63
2022/06/14 01:06:41;;;;;;;3.75;2.03;;;11.80;99.90;;;;;;4961244;28;20227;-62
2022/06/14 01:09:10;;;;;;;5.32;1.80;;;11.70;99.90;;;;;;4971959;28;20206;-62
2022/06/14 01:11:42;;;;;;;3.65;1.52;;;11.60;99.90;;;;;;4978215;28;20203;-62
2022/06/14 01:14:13;;;;;;;3.70;1.48;;;11.40;99.90;;;;;;4966173;28;20230;-62
2022/06/14 01:16:40;;;;;;;7.78;1.50;;;11.50;99.90;;;;;;4971522;28;20233;-62
2022/06/14 01:19:12;;;;;;;5.20;1.60;;;11.40;99.90;;;;;;4992067;28;20214;-62
2022/06/14 01:21:39;;;;;;;2.00;1.58;;;11.40;99.90;;;;;;4965222;28;20208;-62
2022/06/14 01:24:08;;;;;;;7.60;1.88;;;11.30;99.90;;;;;;4966500;28;20293;-62
2022/06/14 01:26:35;;;;;;;7.15;2.08;;;11.20;99.90;;;;;;4970952;28;20214;-62
2022/06/14 01:29:05;;;;;;;4.40;1.92;;;11.30;99.90;;;;;;4975037;28;20313;-62
2022/06/14 01:31:35;;;;;;;4.32;1.80;;;11.30;99.90;;;;;;4956640;28;20747;-62
2022/06/14 01:34:07;;;;;;;9.43;1.60;;;11.20;99.90;;;;;;4967104;28;20226;-62
2022/06/14 01:36:38;;;;;;;4.82;1.80;;;11.30;99.90;;;;;;4970370;28;20219;-62
2022/06/14 01:39:10;;;;;;;3.33;1.92;;;11.40;99.90;;;;;;4969685;28;21033;-62
2022/06/14 01:41:46;;;;;;;5.32;2.00;;;11.40;99.90;;;;;;4985315;28;20198;-62
2022/06/14 01:44:26;;;;;;;3.53;2.13;;;11.30;99.90;;;;;;4957431;28;20198;-62
2022/06/14 01:47:03;;;;;;;6.85;2.05;;;11.40;99.90;;;;;;4955991;28;20226;-62
2022/06/14 01:52:31;;;;;;;6.97;1.98;;;11.50;99.90;;;;;;4975883;28;20267;-62
2022/06/14 01:55:12;;;;;;;5.00;2.10;;;11.40;99.90;;;;;;4972828;28;20230;-62
2022/06/14 01:57:47;;;;;;;7.95;2.55;;;11.60;99.90;;;;;;4981605;28;20219;-62
2022/06/14 02:00:18;;;;;;;3.70;2.05;;;11.60;99.90;;;;;;4960056;28;20214;-62
2022/06/14 02:02:52;;;;;;;4.97;2.15;;;10.40;99.90;;;;;;4941035;28;20211;-62
2022/06/14 02:05:23;;;;;;;5.40;2.17;;;11.60;99.90;;;;;;4984286;28;20202;-62
2022/06/14 02:07:57;;;;;;;6.75;2.20;;;11.60;99.90;;;;;;4954227;28;20238;-62
2022/06/14 02:10:33;;;;;;;5.00;2.05;;;11.60;99.90;;;;;;4985337;28;20286;-62
2022/06/14 02:13:05;;;;;;;4.20;2.30;;;11.70;99.90;;;;;;4959954;28;21250;-62
2022/06/14 02:15:37;;;;;;;4.85;2.15;;;11.70;99.90;;;;;;4959529;28;21476;-62
2022/06/14 02:18:13;;;;;;;11.63;2.35;;;12.00;99.90;;;;;;4957719;28;23902;-62
2022/06/14 02:20:47;;;;;;;6.72;2.40;;;11.70;99.90;;;;;;4981348;28;20206;-62
2022/06/14 02:23:15;;;;;;;8.23;2.60;;;11.60;99.90;;;;;;4967116;28;20217;-62
2022/06/14 02:25:50;;;;;;;8.68;2.33;;;11.60;99.90;;;;;;4971782;28;20211;-62
2022/06/14 02:28:21;;;;;;;5.28;2.22;;;11.60;99.90;;;;;;4977495;28;20210;-62
2022/06/14 02:30:55;;;;;;;7.82;2.17;;;11.50;99.90;;;;;;4951023;28;20226;-62
2022/06/14 02:33:26;;;;;;;5.63;2.40;;;11.60;99.90;;;;;;4982013;28;20217;-62
2022/06/14 02:35:57;;;;;;;4.63;2.38;;;11.60;99.90;;;;;;4969436;28;20238;-62
2022/06/14 02:38:32;;;;;;;7.10;2.45;;;11.60;99.90;;;;;;4982403;28;20206;-62
2022/06/14 02:41:05;;;;;;;4.85;2.00;;;11.70;99.90;;;;;;4975015;28;20746;-63
2022/06/14 02:43:37;;;;;;;4.43;2.50;;;11.50;99.90;;;;;;4982271;28;20207;-62
2022/06/14 02:46:09;;;;;;;4.20;2.10;;;11.50;99.90;;;;;;4974903;28;20234;-62
2022/06/14 02:48:43;;;;;;;5.00;2.35;;;11.50;99.90;;;;;;4959262;28;20214;-62
2022/06/14 02:51:21;;;;;;;6.95;2.17;;;11.40;99.90;;;;;;4991877;28;20755;-63
2022/06/14 02:53:53;;;;;;;4.38;2.20;;;11.50;99.90;;;;;;4968566;28;20277;-62
2022/06/14 02:56:26;;;;;;;5.63;2.00;;;11.40;99.90;;;;;;4969427;28;20554;-62
2022/06/14 02:58:57;;;;;;;4.60;2.20;;;11.40;99.90;;;;;;4978103;28;20210;-62
2022/06/14 03:01:28;;;;;;;7.40;2.30;;;11.40;99.90;;;;;;4962452;28;20214;-62
2022/06/14 03:03:59;;;;;;;4.05;2.42;;;11.40;99.90;;;;;;4957051;28;20215;-62
2022/06/14 03:06:32;;;;;;;2.42;1.90;;;11.40;99.90;;;;;;4972466;28;20207;-62
2022/06/14 03:09:02;;;;;;;4.43;2.33;;;11.30;99.90;;;;;;4980252;28;20203;-62
2022/06/14 03:11:40;;;;;;;5.80;2.05;;;11.20;99.90;;;;;;4961483;28;26692;-62
2022/06/14 03:14:21;;;;;;;4.10;2.20;;;11.20;99.90;;;;;;4977327;28;20219;-62
2022/06/14 03:17:10;;;;;;;5.70;2.55;;;11.20;99.90;;;;;;4981091;28;20202;-62
2022/06/14 03:19:45;;;;;;;4.82;2.42;;;11.30;99.90;;;;;;4953322;28;20233;-63
2022/06/14 03:22:21;;;;;;;9.20;2.25;;;11.30;99.90;;;;;;4986044;28;20209;-62
2022/06/14 03:24:56;;;;;;;4.55;2.63;;;11.30;99.90;;;;;;4971419;28;20958;-62
2022/06/14 03:27:32;;;;;;;4.88;2.58;;;11.40;99.90;;;;;;4959682;28;20206;-62
2022/06/14 03:30:04;;;;;;;5.00;2.60;;;11.40;99.90;;;;;;4977635;28;20244;-62
2022/06/14 03:32:36;;;;;;;5.18;2.30;;;11.40;99.90;;;;;;4970186;28;20211;-62
2022/06/14 03:35:08;;;;;;;8.40;3.17;;;11.40;99.90;;;;;;4962102;28;20234;-62
2022/06/14 03:37:35;;;;;;;7.45;2.45;;;11.40;99.90;;;;;;4953884;28;20691;-62
2022/06/14 03:40:05;;;;;;;7.30;3.00;;;11.50;99.90;;;;;;4991037;28;20230;-62
2022/06/14 03:42:35;;;;;;;5.20;2.55;;;11.30;99.90;;;;;;4947213;28;20574;-62
2022/06/14 03:45:02;;;;;;;4.10;2.90;;;11.40;99.90;;;;;;4970203;28;20676;-62
2022/06/14 03:47:30;;;;;;;6.30;2.47;;;11.50;99.90;;;;;;4972589;28;20295;-62
2022/06/14 03:50:01;;;;;;;6.65;2.58;;;11.50;99.90;;;;;;4966213;28;20761;-62
2022/06/14 03:52:48;;;;;;;10.55;2.95;;;11.50;99.90;;;;;;4987261;28;20203;-62
2022/06/14 03:55:33;;;;;;;5.65;2.55;;;11.50;99.90;;;;;;4979146;28;20230;-62
2022/06/14 03:58:10;;;;;;;7.60;3.20;;;11.50;99.90;;;;;;4969557;28;20238;-62
2022/06/14 04:00:46;;;;;;;5.18;2.60;;;11.50;99.90;;;;;;4964634;28;20213;-62
2022/06/14 04:03:38;;;;;;;8.25;3.10;;;11.60;99.90;;;;;;4985033;28;20585;-62
2022/06/14 04:06:17;;;;;;;5.55;2.80;;;13.10;99.90;;;;;;4965946;28;20760;-62
2022/06/14 04:08:52;;;;;;;8.20;2.65;;;11.60;99.90;;;;;;4959628;28;20218;-62
2022/06/14 04:11:27;;;;;;;6.15;2.85;;;11.60;99.90;;;;;;4970053;28;20357;-63
2022/06/14 04:14:08;;;;;;;7.90;2.83;;;11.50;99.90;;;;;;4962555;28;20218;-62
2022/06/14 04:16:48;;;;;;;8.30;3.30;;;11.60;99.90;;;;;;4962173;28;20209;-63
2022/06/14 04:19:30;;;;;;;12.60;2.92;;;11.80;99.90;;;;;;4982996;28;20190;-62
2022/06/14 04:22:02;;;;;;;8.70;2.75;;;11.60;99.90;;;;;;4953779;28;20214;-62
2022/06/14 04:24:35;;;;;;;10.55;3.20;;;11.70;99.90;;;;;;4957902;28;20207;-62
2022/06/14 04:27:10;;;;;;;7.68;3.25;;;11.80;99.90;;;;;;4956479;28;20207;-62
2022/06/14 04:29:45;;;;;;;5.85;2.30;;;11.70;99.90;;;;;;4967037;28;21017;-62
2022/06/14 04:32:19;;;;;;;8.75;2.97;;;11.80;99.90;;;;;;4952612;28;20696;-62
2022/06/14 04:34:49;;;;;;;6.68;2.60;;;11.60;99.90;;;;;;4982493;28;20312;-62
2022/06/14 04:37:24;;;;;;;7.65;2.78;;;11.90;99.90;;;;;;4958203;28;20937;-62
2022/06/14 04:39:57;;;;;;;9.50;3.55;;;11.90;99.90;;;;;;4963910;28;20607;-62
2022/06/14 04:42:30;;;;;;;7.72;3.10;;;12.00;99.90;;;;;;4971962;28;20234;-62
2022/06/14 04:45:03;;;;;;;9.85;3.53;;;;;;;;;;4952820;28;20203;-62
2022/06/14 04:47:36;;;;;;;11.05;3.38;;;11.90;99.90;;;;;;4973217;28;20199;-62
2022/06/14 04:50:08;;;;;;;10.07;2.85;;;12.10;99.90;;;;;;4967537;28;20199;-62
2022/06/14 04:52:40;;;;;;;11.15;3.22;;;12.20;99.90;;;;;;4965884;28;20219;-62
2022/06/14 04:55:10;;;;;;;7.90;3.33;;;12.20;99.90;;;;;;4960708;28;20230;-62
2022/06/14 04:57:44;;;;;;;8.90;3.05;;;12.30;99.90;;;;;;4966979;28;20232;-62
2022/06/14 05:00:16;;;;;;;10.40;3.30;;;12.30;99.90;;;;;;4967380;28;20713;-62
2022/06/14 05:02:48;;;;;;;5.57;3.50;;;12.40;99.90;;;;;;4972369;28;23279;-62
2022/06/14 05:05:22;;;;;;;9.27;3.30;;;12.40;99.90;;;;;;4978696;28;20206;-62
2022/06/14 05:07:53;;;;;;;5.00;2.95;;;12.50;99.90;;;;;;4961831;28;20215;-61
2022/06/14 05:10:24;;;;;;;11.05;3.28;;;12.50;99.90;;;;;;4957122;28;20606;-61
2022/06/14 05:12:57;;;;;;;13.32;3.05;;;12.50;99.90;;;;;;4957895;28;20234;-62
2022/06/14 05:15:31;;;;;;;7.95;3.13;;;12.50;99.90;;;;;;4973977;28;20230;-61
2022/06/14 05:18:02;;;;;;;12.40;3.10;;;12.60;99.90;;;;;;4964952;28;20265;-62
2022/06/14 05:20:36;;;;;;;10.13;3.28;;;12.60;99.90;;;;;;4981236;28;20941;-63
2022/06/14 05:23:08;;;;;;;10.10;3.00;;;12.60;99.90;;;;;;4959300;28;20223;-62
2022/06/14 05:25:43;;;;;;;10.30;3.25;;;12.60;99.90;;;;;;4964995;28;20209;-62
2022/06/14 05:28:12;;;;;;;4.82;2.42;;;;;;;;;;4958025;28;20591;-62
2022/06/14 05:30:50;;;;;;;6.55;2.83;;;12.70;99.90;;;;;;4965225;28;21272;-62
2022/06/14 05:33:28;;;;;;;7.38;2.65;;;12.70;99.90;;;;;;4954539;28;20233;-63
2022/06/14 05:36:01;;;;;;;9.60;2.72;;;13.50;99.90;;;;;;4982101;28;20222;-62
2022/06/14 05:38:37;;;;;;;9.75;3.80;;;13.00;99.90;;;;;;4957077;28;20215;-62
2022/06/14 05:41:08;;;;;;;7.13;2.75;;;12.80;99.90;;;;;;4963505;28;20229;-62
2022/06/14 05:43:42;;;;;;;10.30;2.97;;;13.00;99.90;;;;;;4968390;28;20522;-62
2022/06/14 05:46:14;;;;;;;12.45;3.28;;;12.90;99.90;;;;;;4967038;28;20650;-62
2022/06/14 05:48:47;;;;;;;13.40;3.22;;;12.90;99.90;;;;;;4952025;28;20684;-62
2022/06/14 05:51:15;;;;;;;7.10;3.03;;;12.90;99.90;;;;;;4960698;28;20211;-63
2022/06/14 05:53:47;;;;;;;10.18;3.30;;;12.90;99.90;;;;;;4966674;28;20210;-62
2022/06/14 05:56:20;;;;;;;8.65;2.92;;;12.90;99.90;;;;;;4966408;28;21527;-62
2022/06/14 05:58:54;;;;;;;10.55;2.80;;;13.00;99.90;;;;;;4982477;28;20233;-62
2022/06/14 06:01:29;;;;;;;13.48;3.35;;;13.10;99.90;;;;;;4952577;28;20323;-62
2022/06/14 06:04:03;;;;;;;8.23;2.92;;;13.20;99.90;;;;;;4984086;28;20195;-62
2022/06/14 06:06:33;;;;;;;10.68;3.28;;;13.20;99.90;;;;;;4979146;28;20211;-63
2022/06/14 06:09:04;;;;;;;9.40;2.92;;;13.30;99.90;;;;;;4967084;28;20214;-63
2022/06/14 06:11:36;;;;;;;12.43;3.50;;;13.40;99.90;;;;;;4974538;28;20207;-63
2022/06/14 06:14:08;;;;;;;14.82;2.72;;;13.30;99.90;;;;;;4971653;28;20314;-62
2022/06/14 06:16:41;;;;;;;9.40;3.55;;;13.50;99.90;;;;;;4945161;28;20246;-62
2022/06/14 06:19:12;;;;;;;9.15;2.67;;;13.50;99.90;;;;;;4970233;28;21695;-62
2022/06/14 06:21:47;;;;;;;7.25;2.92;;;13.50;99.90;;;;;;4970503;28;20232;-62
2022/06/14 06:24:19;;;;;;;11.57;3.58;;;13.80;99.90;;;;;;4966825;28;20214;-62
2022/06/14 06:26:51;;;;;;;8.95;2.80;;;13.70;99.90;;;;;;4969231;28;20207;-63
2022/06/14 06:29:24;;;;;;;7.90;2.35;;;13.70;99.90;;;;;;4977509;28;20217;-63
2022/06/14 06:31:52;;;;;;;11.20;2.78;;;13.30;99.90;;;;;;4974441;28;20210;-62
2022/06/14 06:34:20;;;;;;;7.88;2.55;;;13.40;99.90;;;;;;4959332;28;20830;-62
2022/06/14 06:37:03;;;;;;;11.02;2.88;;;13.70;99.90;;;;;;4969960;28;20258;-63
2022/06/14 06:39:36;;;;;;;9.27;2.35;;;13.60;99.90;;;;;;4968827;28;20226;-62
2022/06/14 06:42:09;;;;;;;6.05;2.58;;;13.80;99.90;;;;;;4988775;28;20724;-62
2022/06/14 06:44:40;;;;;;;6.57;2.30;;;14.00;99.90;;;;;;4972902;28;20231;-63
2022/06/14 06:47:14;;;;;;;15.27;3.22;;;13.90;99.90;;;;;;4969674;28;20595;-63
2022/06/14 06:49:54;;;;;;;7.95;2.45;;;14.00;99.90;;;;;;4943087;28;20207;-62
2022/06/14 06:52:30;;;;;;;6.47;2.10;;;14.00;99.90;;;;;;4977385;28;20218;-63
2022/06/14 06:55:02;;;;;;;8.68;2.10;;;14.00;99.90;;;;;;4967753;28;20823;-63
2022/06/14 06:57:31;;;;;;;10.32;2.10;;;14.00;99.90;;;;;;4965882;28;20322;-63
2022/06/14 07:00:00;;;;;;;11.15;2.78;;;14.00;99.90;;;;;;4976764;28;20211;-63
2022/06/14 07:02:43;;;;;;;7.03;1.90;;;14.10;99.90;;;;;;4963747;28;20223;-63
2022/06/14 07:05:14;;;;;;;9.10;1.88;;;14.10;99.90;;;;;;4964268;28;21059;-62
2022/06/14 07:07:51;;;;;;;5.40;1.70;;;14.20;99.90;;;;;;4976027;28;20229;-63
2022/06/14 07:10:23;;;;;;;6.55;1.70;;;13.80;99.90;;;;;;4968583;28;20206;-63
2022/06/14 07:12:55;;;;;;;6.60;1.88;;;14.30;99.90;;;;;;4988739;28;20203;-63
2022/06/14 07:15:28;;;;;;;8.45;2.03;;;14.50;99.90;;;;;;4967852;28;20602;-62
2022/06/14 07:18:02;;;;;;;5.88;1.70;;;14.40;99.90;;;;;;4967551;28;20695;-63
2022/06/14 07:20:37;;;;;;;6.82;1.90;;;14.30;99.90;;;;;;4969184;28;20703;-62
2022/06/14 07:23:16;;;;;;;7.25;2.08;;;14.30;99.90;;;;;;4951979;28;20579;-63
2022/06/14 07:25:52;;;;;;;7.25;1.90;;;14.40;99.90;;;;;;4969296;28;20242;-63
2022/06/14 07:28:25;;;;;;;6.03;2.05;;;14.40;99.90;;;;;;4988831;28;20218;-63
2022/06/14 07:30:55;;;;;;;7.97;2.05;;;14.30;99.90;;;;;;4962431;28;20223;-63
2022/06/14 07:33:27;;;;;;;8.82;1.63;;;14.20;99.90;;;;;;4978352;28;20214;-62
2022/06/14 07:35:56;;;;;;;10.50;1.92;;;14.20;99.90;;;;;;4958564;28;20222;-62
2022/06/14 07:38:30;;;;;;;8.00;1.80;;;14.20;99.90;;;;;;4957958;28;20300;-63
2022/06/14 07:41:01;;;;;;;5.97;2.10;;;14.30;99.90;;;;;;4963655;28;20313;-62
2022/06/14 07:43:33;;;;;;;4.82;1.70;;;14.40;99.90;;;;;;4979200;28;20317;-63
2022/06/14 07:46:04;;;;;;;7.78;1.27;;;14.40;99.90;;;;;;4983736;28;20209;-62
2022/06/14 07:48:38;;;;;;;6.40;1.77;;;14.30;99.90;;;;;;4982973;28;20206;-63
2022/06/14 07:51:09;;;;;;;5.75;1.52;;;14.40;99.90;;;;;;4955058;28;20565;-62
2022/06/14 07:53:40;;;;;;;8.00;2.00;;;14.40;99.90;;;;;;4973687;28;20234;-62
2022/06/14 07:56:10;;;;;;;6.15;1.98;;;14.40;99.90;;;;;;4954025;28;20231;-63
2022/06/14 07:58:43;;;;;;;14.15;2.03;;;14.50;99.90;;;;;;4988622;28;20215;-62
2022/06/14 08:01:14;;;;;;;9.80;1.80;;;14.70;99.90;;;;;;4948731;28;20223;-63
2022/06/14 08:03:49;;;;;;;11.57;1.92;;;14.80;99.90;;;;;;4970632;28;20218;-62
2022/06/14 08:06:20;;;;;;;9.35;2.08;;;14.90;99.90;;;;;;4963160;28;20297;-63
2022/06/14 08:08:49;;;;;;;7.25;2.30;;;14.90;99.90;;;;;;4970881;28;20685;-63
2022/06/14 08:11:20;;;;;;;7.03;1.92;;;15.00;99.90;;;;;;4975737;28;20203;-63
2022/06/14 08:13:53;;;;;;;5.55;1.77;;;15.00;99.90;;;;;;4987786;28;20203;-63
2022/06/14 08:16:22;;;;;;;9.13;2.00;;;14.80;99.90;;;;;;4955785;28;20285;-63
2022/06/14 08:18:54;;;;;;;7.85;1.70;;;14.80;99.90;;;;;;4969960;28;20207;-62
2022/06/14 08:21:28;;;;;;;9.60;2.13;;;14.80;99.90;;;;;;4965202;28;21019;-62
2022/06/14 08:23:58;;;;;;;6.18;2.28;;;14.80;99.90;;;;;;4985809;28;20211;-62
2022/06/14 08:26:29;;;;;;;8.30;1.70;;;14.70;99.90;;;;;;4958981;28;20203;-63
2022/06/14 08:29:01;;;;;;;5.38;1.65;;;14.80;99.90;;;;;;4990184;28;20213;-62
2022/06/14 08:31:35;;;;;;;6.72;2.08;;;14.90;99.90;;;;;;4962528;28;20241;-63
2022/06/14 08:34:10;;;;;;;7.82;2.13;;;15.00;99.90;;;;;;4971728;28;20210;-62
2022/06/14 08:36:45;;;;;;;7.13;1.80;;;15.20;99.90;;;;;;4972966;28;20226;-63
2022/06/14 08:39:16;;;;;;;9.48;1.80;;;15.30;99.90;;;;;;4970717;28;20416;-62
2022/06/14 08:42:10;;;;;;;4.60;1.52;;;15.30;99.90;;;;;;4968135;28;20298;-62
2022/06/14 08:44:43;;;;;;;4.05;1.70;;;15.10;99.90;;;;;;4977417;28;20254;-62
2022/06/14 08:47:39;;;;;;;5.20;1.73;;;15.20;99.90;;;;;;4956628;28;20213;-63
2022/06/14 08:50:23;;;;;;;6.78;2.10;;;15.10;99.90;;;;;;4975134;28;20200;-62
2022/06/14 08:53:25;;;;;;;7.00;1.70;;;15.00;99.90;;;;;;4974206;28;20309;-62
2022/06/14 08:56:08;;;;;;;4.32;1.55;;;15.00;99.90;;;;;;4979131;28;20202;-63
2022/06/14 08:59:07;;;;;;;6.60;1.50;;;15.20;99.90;;;;;;4947778;28;20246;-62
2022/06/14 09:01:55;;;;;;;6.70;1.80;;;16.00;99.90;;;;;;4987355;28;20210;-63
2022/06/14 09:04:57;;;;;;;6.35;1.23;;;15.50;99.90;;;;;;4965306;28;20766;-64
2022/06/14 09:08:01;;;;;;;8.18;1.77;;;16.00;99.90;;;;;;4985197;28;20758;-63
2022/06/14 09:10:44;;;;;;;7.85;1.73;;;15.60;99.90;;;;;;4949976;28;20700;-63
2022/06/14 09:13:41;;;;;;;3.58;1.23;;;15.70;99.90;;;;;;4954600;28;20796;-62
2022/06/14 09:16:39;;;;;;;8.70;1.55;;;15.60;99.90;;;;;;4967380;28;20227;-62
2022/06/14 09:19:23;;;;;;;5.35;1.55;;;15.50;99.90;;;;;;4968678;28;20642;-62
2022/06/14 09:22:05;;;;;;;5.65;1.70;;;15.40;99.90;;;;;;4972632;28;20223;-62
2022/06/14 09:24:58;;;;;;;6.28;1.83;;;15.30;99.90;;;;;;4976545;28;20234;-63
2022/06/14 09:27:50;;;;;;;7.57;1.50;;;15.40;99.90;;;;;;4974467;28;20233;-62
2022/06/14 09:30:55;;;;;;;4.55;1.50;;;15.30;99.90;;;;;;4963172;28;20349;-62
2022/06/14 09:33:54;;;;;;;7.97;1.60;;;16.20;99.90;;;;;;4968637;28;20390;-63
2022/06/14 09:36:42;;;;;;;2.83;1.33;;;15.60;99.90;;;;;;4964520;28;20235;-62
2022/06/14 09:39:36;;;;;;;3.63;1.45;;;16.00;99.90;;;;;;4959693;28;20209;-63
2022/06/14 09:42:44;;;;;;;1.88;1.13;;;16.10;99.90;;;;;;4973181;28;20203;-63
2022/06/14 09:45:48;;;;;;;2.53;1.02;;;16.20;99.90;;;;;;4952785;28;20288;-62
2022/06/14 09:48:37;;;;;;;6.50;1.30;;;16.40;99.90;;;;;;4973498;28;20210;-63
2022/06/14 09:51:36;;;;;;;5.15;1.42;;;16.30;99.90;;;;;;4965868;28;20222;-63
2022/06/14 09:54:28;;;;;;;6.47;1.73;;;16.30;99.90;;;;;;4972187;28;20217;-62
2022/06/14 09:57:23;;;;;;;11.93;1.70;;;16.20;99.90;;;;;;4989124;28;20230;-63
2022/06/14 10:00:23;;;;;;;5.40;1.15;;;16.30;99.90;;;;;;4972126;28;20206;-63
2022/06/14 10:03:30;;;;;;;5.05;1.35;;;16.30;99.90;;;;;;4989054;28;20691;-62
2022/06/14 10:06:15;;;;;;;3.10;1.23;;;16.70;99.90;;;;;;4976630;28;20668;-63
2022/06/14 10:09:01;;;;;;;4.20;1.55;;;16.30;99.90;;;;;;4949155;28;20214;-63
2022/06/14 10:11:43;;;;;;;4.45;1.38;;;16.10;99.90;;;;;;4986495;28;20233;-63
2022/06/14 10:14:23;;;;;;;3.65;1.55;;;16.10;99.90;;;;;;4984038;28;20206;-63
2022/06/14 10:17:18;;;;;;;6.93;1.55;;;16.00;99.90;;;;;;4972079;28;20222;-63
2022/06/14 10:20:19;;;;;;;3.70;0.90;;;16.20;99.90;;;;;;4949375;28;20209;-63
2022/06/14 10:23:02;;;;;;;3.85;1.35;;;16.40;99.90;;;;;;4964712;28;20313;-63
2022/06/14 10:25:37;;;;;;;3.97;1.23;;;16.60;99.90;;;;;;4979147;28;20261;-63
2022/06/14 10:28:12;;;;;;;6.45;1.30;;;16.60;99.90;;;;;;4988753;28;20206;-63
2022/06/14 10:31:06;;;;;;;7.03;1.15;;;16.50;99.90;;;;;;4947616;28;20351;-63
2022/06/14 10:33:45;;;;;;;3.00;1.20;;;16.50;99.90;;;;;;4975090;28;20770;-63
2022/06/14 10:36:45;;;;;;;4.30;1.17;;;16.30;99.90;;;;;;4982053;28;20211;-63
2022/06/14 10:39:43;;;;;;;7.25;1.40;;;16.40;99.90;;;;;;4975480;28;20331;-63
2022/06/14 10:42:17;;;;;;;1.10;1.00;;;16.60;99.90;;;;;;4971692;28;20222;-63
2022/06/14 10:44:51;;;;;;;10.73;1.65;;;16.70;99.90;;;;;;4983124;28;20202;-63
2022/06/14 10:47:36;;;;;;;2.55;1.27;;;16.70;99.90;;;;;;4972841;28;20222;-63
2022/06/14 10:50:19;;;;;;;5.70;1.60;;;17.20;99.90;;;;;;4988461;28;20223;-62
2022/06/14 10:53:12;;;;;;;3.85;1.30;;;16.60;99.90;;;;;;4969592;28;20209;-63
2022/06/14 10:56:05;;;;;;;4.18;1.35;;;16.50;99.90;;;;;;4970893;28;20207;-63
2022/06/14 10:59:09;;;;;;;3.75;1.27;;;16.80;99.90;;;;;;4988784;28;20230;-63
2022/06/14 11:01:45;;;;;;;6.93;1.90;;;16.80;99.90;;;;;;4980840;28;20225;-63
2022/06/14 11:04:21;;;;;;;5.72;1.83;;;16.90;99.90;;;;;;4980328;28;20880;-63
2022/06/14 11:07:17;;;;;;;3.17;1.42;;;16.90;99.90;;;;;;4954257;28;20222;-63
2022/06/14 11:10:04;;;;;;;5.57;1.20;;;17.10;99.90;;;;;;4960356;28;20231;-62
2022/06/14 11:12:50;;;;;;;3.63;1.13;;;17.00;99.90;;;;;;4956962;28;20222;-62
2022/06/14 11:15:25;;;;;;;3.58;1.13;;;16.80;99.90;;;;;;4980526;28;20217;-63
2022/06/14 11:18:15;;;;;;;3.53;1.20;;;16.90;99.90;;;;;;4950144;28;20229;-63
2022/06/14 11:20:53;;;;;;;4.70;1.33;;;17.00;99.90;;;;;;4986373;28;20703;-63
2022/06/14 11:23:29;;;;;;;2.25;1.15;;;17.00;99.90;;;;;;4973838;28;20321;-63
2022/06/14 11:26:06;;;;;;;3.83;1.20;;;16.80;99.90;;;;;;4952176;28;20202;-63
2022/06/14 11:28:40;;;;;;;2.00;0.70;;;16.70;99.90;;;;;;4972367;28;20217;-63
2022/06/14 11:31:15;;;;;;;5.20;1.15;;;16.70;99.90;;;;;;4970243;28;21363;-63
2022/06/14 11:33:56;;;;;;;3.63;1.00;;;16.70;99.90;;;;;;4972229;28;20219;-63
2022/06/14 11:36:55;;;;;;;2.47;0.90;;;16.60;99.90;;;;;;4972712;28;20226;-63
2022/06/14 11:39:35;;;;;;;4.50;1.45;;;16.60;99.90;;;;;;4938715;28;20246;-63
2022/06/14 11:42:06;;;;;;;4.95;1.15;;;16.50;99.90;;;;;;4963128;28;20304;-63
2022/06/14 11:44:43;;;;;;;4.18;1.95;;;16.70;99.90;;;;;;4957014;28;20339;-63
2022/06/14 11:47:18;;;;;;;7.93;2.03;;;16.80;99.90;;;;;;4966218;28;23131;-63
2022/06/14 11:49:55;;;;;;;2.22;0.98;;;16.70;99.90;;;;;;4943011;28;20231;-63
2022/06/14 11:52:46;;;;;;;3.53;1.00;;;16.80;99.90;;;;;;4964179;28;20230;-63
2022/06/14 11:55:26;;;;;;;4.10;1.10;;;16.80;99.90;;;;;;4969268;28;20218;-63
2022/06/14 11:58:06;;;;;;;3.17;1.02;;;16.80;99.90;;;;;;4956624;28;21469;-63
2022/06/14 12:01:03;;;;;;;4.95;1.27;;;16.80;99.90;;;;;;4953285;28;20226;-63
2022/06/14 12:04:01;;;;;;;3.40;1.02;;;19.10;99.90;;;;;;4962290;28;20217;-63
2022/06/14 12:06:39;;;;;;;8.15;1.50;;;16.70;99.90;;;;;;4962022;28;20207;-63
2022/06/14 12:09:21;;;;;;;2.28;1.10;;;16.70;99.90;;;;;;4986434;28;20710;-63
2022/06/14 12:11:55;;;;;;;4.65;1.08;;;15.80;99.90;;;;;;4960477;28;20990;-63
2022/06/14 12:14:37;;;;;;;2.97;1.05;;;16.60;99.90;;;;;;4965719;28;20202;-63
2022/06/14 12:17:19;;;;;;;2.03;1.20;;;16.30;99.90;;;;;;4934199;28;20226;-62
2022/06/14 12:19:52;;;;;;;5.50;1.60;;;16.60;99.90;;;;;;4960370;28;20799;-62
2022/06/14 12:22:28;;;;;;;5.20;1.52;;;16.60;99.90;;;;;;4960681;28;20669;-63
2022/06/14 12:27:46;;;;;;;5.45;0.95;;;16.70;99.90;;;;;;4960491;28;20348;-62
2022/06/14 12:30:15;;;;;;;3.88;1.38;;;16.70;99.90;;;;;;4961854;28;21408;-62
2022/06/14 12:32:48;;;;;;;6.05;2.60;;;16.80;99.90;;;;;;4963605;28;20207;-62
2022/06/14 12:35:19;;;;;;;5.13;1.40;;;16.80;99.90;;;;;;4960862;28;21138;-62
2022/06/14 12:37:53;;;;;;;3.65;1.30;;;16.90;99.90;;;;;;4942689;28;21011;-62
2022/06/14 12:40:29;;;;;;;4.38;1.67;;;17.10;99.90;;;;;;4983122;28;20198;-63
2022/06/14 12:43:04;;;;;;;3.38;1.02;;;17.00;99.90;;;;;;4943469;28;20221;-63
2022/06/14 12:45:34;;;;;;;1.50;0.90;;;16.90;99.90;;;;;;4962579;28;20217;-62
2022/06/14 12:48:15;;;;;;;1.20;1.10;;;16.90;99.90;;;;;;4942490;28;20483;-62
2022/06/14 12:50:47;;;;;;;5.22;1.77;;;16.90;99.90;;;;;;4952188;28;20210;-63
2022/06/14 12:53:18;;;;;;;2.50;1.33;;;16.40;99.90;;;;;;4957901;28;20408;-61
2022/06/14 12:55:50;;;;;;;6.78;1.77;;;17.40;99.90;;;;;;4970743;28;20200;-62
2022/06/14 12:58:31;;;;;;;3.33;1.58;;;16.80;99.90;;;;;;4958532;28;20231;-63
2022/06/14 13:01:05;;;;;;;6.53;1.23;;;16.80;99.90;;;;;;4951948;28;20214;-62
2022/06/14 13:03:45;;;;;;;3.05;1.20;;;16.70;99.90;;;;;;4967916;28;20248;-62
2022/06/14 13:06:38;;;;;;;3.92;1.30;;;16.80;99.90;;;;;;4958818;28;20679;-63
2022/06/14 13:09:18;;;;;;;5.32;1.55;;;16.80;99.90;;;;;;4966674;28;23067;-61
2022/06/14 13:11:53;;;;;;;5.28;2.00;;;16.80;99.90;;;;;;4969943;28;20239;-61
2022/06/14 13:14:27;;;;;;;4.28;1.60;;;17.30;99.90;;;;;;4945388;28;20222;-63
2022/06/14 13:17:11;;;;;;;1.48;1.17;;;16.80;99.90;;;;;;4968654;28;20206;-63
2022/06/14 13:19:43;;;;;;;1.92;1.13;;;16.90;99.90;;;;;;4949721;28;20230;-63
2022/06/14 13:22:52;;;;;;;6.15;1.52;;;17.00;99.90;;;;;;4940349;28;20353;-63
2022/06/14 13:25:40;;;;;;;3.75;1.30;;;17.20;99.90;;;;;;4952302;28;20231;-62
2022/06/14 13:28:16;;;;;;;4.80;1.60;;;17.20;99.90;;;;;;4972570;28;20214;-61
2022/06/14 13:30:51;;;;;;;2.22;1.15;;;17.30;99.90;;;;;;4971905;28;20233;-62
2022/06/14 13:33:36;;;;;;;9.30;2.38;;;17.40;99.90;;;;;;4952613;28;20222;-62
2022/06/14 13:36:10;;;;;;;3.92;1.25;;;17.30;99.90;;;;;;4969861;28;20238;-62
2022/06/14 13:38:42;;;;;;;11.30;1.83;;;17.40;99.90;;;;;;4939001;28;20609;-62
2022/06/14 13:41:15;;;;;;;2.65;1.42;;;17.40;99.90;;;;;;4973883;28;20231;-62